Main page
METAR-TAF:

METAR-TAF

Airports :

Honiara International Airport

Honiara, Guadalcanal, Solomon Islands

latitude: 09-25S, longitude: 160-03E, elevation: 8 m

Current weather observation

The report was made 2 hours and 21 minutes ago, at 16:00 UTC
Calm wind
Temperature 25°C
Humidity 94%
Pressure 1009 hPa
Visibility 10 km or more
Few clouds at a height of 1500 ft
Few clouds at a height of 1600 ft, Cumulonimbus.

METAR: AGGH 211600Z 00000KT 9999 FEW015 FEW016CB 25/24 Q1009

Time: 05:21 (18:21 UTC)

Forecast

The report was made 5 hours and 56 minutes ago, at 12:25 UTC
Forecast valid from 21 at 12 UTC to 22 at 12 UTC
Wind 8 kt from the Southeast
Visibility: 1010 m
Few clouds at a height of 1800 ft

TAF: AGGH 211225Z 2112/2212 14008KT 9999 FEW018 T 26 25 24 23 Q 1011 1009 1008 1010 TAF3

Weather observations and forecasts of more than 4000 airports (METAR and TAF reports).

The available stations are represented by yellow and red dots on the map.

Hover mouse over dot to see the name of the station.

Then click to see weather observations and forecasts.

To change the map : click on the green buttons with a black cross to zoom in, on the green button with a dash to zoom out, or on the green arrows for adjacent maps.


METAR-TAF: